createdAt,value
2019-02-12T00:00:13.109Z,100737.20
2019-02-12T00:01:20.148Z,100742.77
2019-02-12T00:02:25.801Z,100743.66
2019-02-12T00:03:31.355Z,100738.86
2019-02-12T00:04:36.977Z,100749.19
2019-02-12T00:05:42.538Z,100746.00
2019-02-12T00:06:48.168Z,100746.83
2019-02-12T00:07:53.821Z,100754.14
2019-02-12T00:08:59.896Z,100745.42
2019-02-12T00:10:07.024Z,100754.00
2019-02-12T00:11:12.624Z,100755.27
2019-02-12T00:12:18.321Z,100761.31
2019-02-12T00:13:23.884Z,100761.25
2019-02-12T00:14:29.495Z,100755.52
2019-02-12T00:15:35.082Z,100763.34
2019-02-12T00:16:40.889Z,100758.95
2019-02-12T00:17:46.560Z,100764.06
2019-02-12T00:18:52.233Z,100763.65
2019-02-12T00:19:57.769Z,100767.16
2019-02-12T00:21:08.941Z,100765.30
2019-02-12T00:22:10.914Z,100758.26
2019-02-12T00:23:16.922Z,100764.47
2019-02-12T00:24:22.637Z,100765.41
2019-02-12T00:25:29.189Z,100769.77
2019-02-12T00:26:34.830Z,100767.91
2019-02-12T00:27:40.478Z,100772.23
2019-02-12T00:28:46.057Z,100766.91
2019-02-12T00:29:51.731Z,100768.93
2019-02-12T00:30:57.372Z,100774.97
2019-02-12T00:32:02.986Z,100778.88
2019-02-12T00:33:08.949Z,100775.80
2019-02-12T00:34:14.578Z,100775.80
2019-02-12T00:35:20.138Z,100772.67
2019-02-12T00:36:26.073Z,100772.19
2019-02-12T00:37:31.937Z,100776.51
2019-02-12T00:38:37.599Z,100775.50
2019-02-12T00:39:43.700Z,100782.03
2019-02-12T00:40:49.232Z,100791.16
2019-02-12T00:41:54.792Z,100789.33
2019-02-12T00:43:00.369Z,100790.08
2019-02-12T00:44:06.145Z,100786.17
2019-02-12T00:45:12.082Z,100784.05
2019-02-12T00:46:17.748Z,100783.98
2019-02-12T00:47:23.600Z,100793.81
2019-02-12T00:48:29.228Z,100788.01
2019-02-12T00:49:35.015Z,100793.19
2019-02-12T00:50:40.573Z,100794.48
2019-02-12T00:51:46.340Z,100795.31
2019-02-12T00:52:51.968Z,100799.70
2019-02-12T00:53:57.826Z,100798.85
2019-02-12T00:55:03.794Z,100797.51
2019-02-12T00:56:09.379Z,100794.75
2019-02-12T00:57:15.008Z,100801.27
2019-02-12T00:58:20.619Z,100801.23
2019-02-12T00:59:26.272Z,100800.34
2019-02-12T01:00:31.928Z,100806.37
2019-02-12T01:01:37.496Z,100804.06
2019-02-12T01:02:43.191Z,100800.56
2019-02-12T01:03:48.809Z,100801.46
2019-02-12T01:04:54.457Z,100800.09
2019-02-12T01:06:00.074Z,100798.33
2019-02-12T01:07:05.693Z,100797.36
2019-02-12T01:08:11.340Z,100801.20
2019-02-12T01:09:16.993Z,100801.64
2019-02-12T01:10:22.821Z,100797.66
2019-02-12T01:11:28.662Z,100803.70
2019-02-12T01:12:34.686Z,100806.78
2019-02-12T01:13:40.374Z,100809.39
2019-02-12T01:14:45.991Z,100810.29
2019-02-12T01:15:51.556Z,100812.00
2019-02-12T01:16:57.180Z,100816.39
2019-02-12T01:18:03.298Z,100812.52
2019-02-12T01:19:08.896Z,100802.95
2019-02-12T01:20:16.159Z,100814.20
2019-02-12T01:21:26.264Z,100814.61
2019-02-12T01:22:29.718Z,100823.44
2019-02-12T01:23:35.920Z,100821.65
2019-02-12T01:24:42.269Z,100822.06
2019-02-12T01:25:48.236Z,100822.02
2019-02-12T01:26:53.869Z,100825.93
2019-02-12T01:27:59.520Z,100821.02
2019-02-12T01:29:05.159Z,100830.06
2019-02-12T01:30:16.629Z,100820.45
2019-02-12T01:31:22.089Z,100827.45
2019-02-12T01:32:27.748Z,100824.84
2019-02-12T01:33:33.377Z,100840.08
2019-02-12T01:34:39.090Z,100832.67
2019-02-12T01:35:45.203Z,100843.84
2019-02-12T01:36:51.621Z,100837.33
2019-02-12T01:37:58.661Z,100839.00
2019-02-12T01:39:06.019Z,100838.52
2019-02-12T01:40:14.173Z,100841.12
2019-02-12T01:41:20.769Z,100838.03
2019-02-12T01:42:27.319Z,100830.02
2019-02-12T01:43:33.769Z,100847.11
2019-02-12T01:44:39.911Z,100843.13
2019-02-12T01:45:46.926Z,100843.13
2019-02-12T01:46:53.868Z,100846.63
2019-02-12T01:48:00.149Z,100838.32
2019-02-12T01:49:06.590Z,100845.20
2019-02-12T01:50:13.789Z,100846.02
2019-02-12T01:51:21.078Z,100845.12
2019-02-12T01:52:28.760Z,100841.92
2019-02-12T01:53:34.848Z,100851.86
2019-02-12T01:54:41.880Z,100844.86
2019-02-12T01:55:47.998Z,100845.30
2019-02-12T01:56:53.624Z,100852.63
2019-02-12T01:57:59.181Z,100847.83
2019-02-12T01:59:04.767Z,100847.83
2019-02-12T02:00:14.830Z,100846.53
2019-02-12T02:01:20.470Z,100847.76
2019-02-12T02:02:26.110Z,100847.30
2019-02-12T02:03:32.759Z,100852.44
2019-02-12T02:04:38.390Z,100852.52
2019-02-12T02:05:44.262Z,100848.53
2019-02-12T02:06:50.605Z,100851.13
2019-02-12T02:07:57.060Z,100849.34
2019-02-12T02:09:03.748Z,100846.73
2019-02-12T02:10:14.108Z,100851.02
2019-02-12T02:11:20.380Z,100843.53
2019-02-12T02:12:27.174Z,100850.86
2019-02-12T02:13:34.236Z,100851.23
2019-02-12T02:14:40.730Z,100854.24
2019-02-12T02:15:47.638Z,100852.12
2019-02-12T02:16:54.828Z,100851.23
2019-02-12T02:18:00.958Z,100848.14
2019-02-12T02:19:07.337Z,100846.76
2019-02-12T02:20:17.258Z,100854.16
2019-02-12T02:21:24.806Z,100862.95
2019-02-12T02:22:31.321Z,100859.94
2019-02-12T02:23:38.788Z,100859.53
2019-02-12T02:24:45.452Z,100858.27
2019-02-12T02:25:51.401Z,100856.97
2019-02-12T02:26:57.059Z,100853.55
2019-02-12T02:28:02.708Z,100858.27
2019-02-12T02:29:08.326Z,100854.36
2019-02-12T02:30:15.695Z,100853.06
2019-02-12T02:31:21.380Z,100857.74
2019-02-12T02:32:27.027Z,100861.24
2019-02-12T02:33:32.645Z,100851.97
2019-02-12T02:34:38.379Z,100853.68
2019-02-12T02:35:44.030Z,100859.34
2019-02-12T02:36:50.251Z,100861.05
2019-02-12T02:37:57.316Z,100862.80
2019-02-12T02:39:04.511Z,100861.66
2019-02-12T02:40:12.854Z,100866.91
2019-02-12T02:41:19.410Z,100863.36
2019-02-12T02:42:25.875Z,100861.66
2019-02-12T02:43:32.377Z,100865.16
2019-02-12T02:44:39.121Z,100873.86
2019-02-12T02:45:45.678Z,100868.16
2019-02-12T02:46:51.579Z,100868.58
2019-02-12T02:48:00.129Z,100872.08
2019-02-12T02:49:06.909Z,100879.00
2019-02-12T02:50:14.331Z,100888.45
2019-02-12T02:51:21.031Z,100883.52
2019-02-12T02:52:28.296Z,100881.32
2019-02-12T02:53:34.950Z,100886.53
2019-02-12T02:54:41.411Z,100880.38
2019-02-12T02:55:47.319Z,100883.88
2019-02-12T02:56:53.263Z,100885.64
2019-02-12T02:57:58.889Z,100886.08
2019-02-12T02:59:04.570Z,100888.20
2019-02-12T03:00:12.082Z,100888.20
2019-02-12T03:01:17.738Z,100891.63
2019-02-12T03:02:23.356Z,100882.83
2019-02-12T03:03:28.916Z,100882.83
2019-02-12T03:04:34.567Z,100890.64
2019-02-12T03:05:40.218Z,100891.01
2019-02-12T03:06:46.536Z,100894.51
2019-02-12T03:07:52.551Z,100891.42
2019-02-12T03:08:59.479Z,100894.84
2019-02-12T03:10:07.149Z,100897.44
2019-02-12T03:11:14.109Z,100904.44
2019-02-12T03:12:20.346Z,100902.33
2019-02-12T03:13:27.489Z,100911.44
2019-02-12T03:14:34.209Z,100905.74
2019-02-12T03:15:40.890Z,100912.18
2019-02-12T03:16:47.069Z,100910.06
2019-02-12T03:17:54.911Z,100908.34
2019-02-12T03:19:01.659Z,100911.03
2019-02-12T03:20:12.108Z,100908.43
2019-02-12T03:21:18.940Z,100918.89
2019-02-12T03:22:25.885Z,100914.25
2019-02-12T03:23:32.707Z,100919.66
2019-02-12T03:24:40.012Z,100921.17
2019-02-12T03:25:46.666Z,100926.91
2019-02-12T03:26:52.724Z,100925.73
2019-02-12T03:27:58.394Z,100921.01
2019-02-12T03:29:04.011Z,100930.61
2019-02-12T03:30:12.973Z,100923.81
2019-02-12T03:31:18.765Z,100921.70
2019-02-12T03:32:24.401Z,100924.34
2019-02-12T03:33:30.049Z,100926.55
2019-02-12T03:34:35.713Z,100924.91
2019-02-12T03:35:41.378Z,100928.00
2019-02-12T03:36:48.013Z,100921.94
2019-02-12T03:37:54.679Z,100931.02
2019-02-12T03:39:00.660Z,100927.52
2019-02-12T03:40:12.193Z,100926.09
2019-02-12T03:41:19.020Z,100929.56
2019-02-12T03:42:26.279Z,100935.26
2019-02-12T03:43:32.445Z,100935.74
2019-02-12T03:44:38.943Z,100936.27
2019-02-12T03:45:46.588Z,100937.66
2019-02-12T03:46:53.220Z,100941.23
2019-02-12T03:47:59.499Z,100946.08
2019-02-12T03:49:06.437Z,100943.96
2019-02-12T03:50:14.297Z,100947.99
2019-02-12T03:51:21.552Z,100955.00
2019-02-12T03:52:28.044Z,100945.95
2019-02-12T03:53:35.196Z,100959.92
2019-02-12T03:54:42.376Z,100949.50
2019-02-12T03:55:49.685Z,100955.20
2019-02-12T03:56:55.540Z,100957.52
2019-02-12T03:58:01.187Z,100962.33
2019-02-12T03:59:06.881Z,100961.91
2019-02-12T04:00:17.100Z,100959.80
2019-02-12T04:01:22.759Z,100961.09
2019-02-12T04:02:28.409Z,100958.53
2019-02-12T04:03:34.056Z,100957.72
2019-02-12T04:04:39.752Z,100963.45
2019-02-12T04:05:45.390Z,100959.63
2019-02-12T04:06:51.059Z,100955.72
2019-02-12T04:07:56.984Z,100957.09
2019-02-12T04:09:03.511Z,100965.41
2019-02-12T04:10:09.309Z,100966.34
2019-02-12T04:11:15.377Z,100968.05
2019-02-12T04:12:21.363Z,100953.30
2019-02-12T04:13:27.409Z,100950.28
2019-02-12T04:14:34.068Z,100958.59
2019-02-12T04:15:40.539Z,100954.20
2019-02-12T04:16:47.600Z,100953.79
2019-02-12T04:17:54.636Z,100961.66
2019-02-12T04:19:00.681Z,100963.45
2019-02-12T04:20:07.405Z,100960.84
2019-02-12T04:21:14.126Z,100961.25
2019-02-12T04:22:22.929Z,100968.73
2019-02-12T04:23:28.045Z,100965.64
2019-02-12T04:24:34.719Z,100975.74
2019-02-12T04:25:41.737Z,100971.42
2019-02-12T04:26:47.396Z,100967.96
2019-02-12T04:27:55.267Z,100964.01
2019-02-12T04:29:00.290Z,100969.22
2019-02-12T04:30:07.421Z,100957.94
2019-02-12T04:31:13.068Z,100961.03
2019-02-12T04:32:18.716Z,100961.84
2019-02-12T04:33:24.376Z,100957.00
2019-02-12T04:34:30.037Z,100958.38
2019-02-12T04:35:35.661Z,100961.03
2019-02-12T04:36:42.511Z,100969.27
2019-02-12T04:37:49.947Z,100965.35
2019-02-12T04:38:56.711Z,100971.12
2019-02-12T04:40:03.381Z,100968.56
2019-02-12T04:41:09.674Z,100970.77
2019-02-12T04:42:16.148Z,100972.55
2019-02-12T04:43:22.211Z,100985.59
2019-02-12T04:44:28.499Z,100973.98
2019-02-12T04:45:34.961Z,100981.34
2019-02-12T04:46:41.229Z,100980.05
2019-02-12T04:47:47.886Z,100987.02
2019-02-12T04:48:54.510Z,100984.48
2019-02-12T04:50:01.018Z,100980.66
2019-02-12T04:51:07.350Z,100980.16
2019-02-12T04:52:13.500Z,100993.33
2019-02-12T04:53:20.664Z,100985.50
2019-02-12T04:54:27.680Z,100993.45
2019-02-12T04:55:34.161Z,100996.50
2019-02-12T04:56:40.013Z,100993.03
2019-02-12T04:57:45.631Z,101000.94
2019-02-12T04:58:51.293Z,101004.48
2019-02-12T04:59:56.956Z,101006.64
2019-02-12T05:01:02.618Z,101003.14
2019-02-12T05:02:08.291Z,101005.67
2019-02-12T05:03:13.934Z,101011.70
2019-02-12T05:04:19.549Z,101009.09
2019-02-12T05:05:25.169Z,101013.02
2019-02-12T05:06:30.750Z,101015.21
2019-02-12T05:07:36.413Z,101008.69
2019-02-12T05:09:15.481Z,101021.41
2019-02-12T05:10:29.790Z,101020.91
2019-02-12T05:11:36.168Z,101019.28
2019-02-12T05:12:42.966Z,101021.03
2019-02-12T05:13:50.034Z,101022.75
2019-02-12T05:14:56.755Z,101023.64
2019-02-12T05:16:03.919Z,101024.95
2019-02-12T05:17:10.138Z,101020.98
2019-02-12T05:18:16.590Z,101029.34
2019-02-12T05:19:23.476Z,101025.44
2019-02-12T05:20:29.677Z,101031.14
2019-02-12T05:21:36.178Z,101031.47
2019-02-12T05:22:43.797Z,101035.38
2019-02-12T05:23:49.978Z,101035.80
2019-02-12T05:24:56.309Z,101039.70
2019-02-12T05:26:02.996Z,101036.64
2019-02-12T05:27:08.833Z,101036.16
2019-02-12T05:28:14.478Z,101042.08
2019-02-12T05:29:20.138Z,101042.48
2019-02-12T05:30:25.795Z,101038.57
2019-02-12T05:31:31.480Z,101046.81
2019-02-12T05:32:37.145Z,101038.08
2019-02-12T05:33:42.790Z,101049.00
2019-02-12T05:34:48.473Z,101045.50
2019-02-12T05:35:54.094Z,101049.08
2019-02-12T05:37:00.426Z,101048.67
2019-02-12T05:38:07.007Z,101043.30
2019-02-12T05:39:14.215Z,101051.28
2019-02-12T05:40:20.587Z,101054.70
2019-02-12T05:41:27.336Z,101057.80
2019-02-12T05:42:34.688Z,101057.31
2019-02-12T05:43:41.549Z,101066.86
2019-02-12T05:44:48.433Z,101070.77
2019-02-12T05:45:55.629Z,101066.38
2019-02-12T05:47:01.847Z,101063.35
2019-02-12T05:48:08.798Z,101058.47
2019-02-12T05:49:16.088Z,101071.47
2019-02-12T05:50:22.339Z,101062.34
2019-02-12T05:51:28.558Z,101065.44
2019-02-12T05:52:35.554Z,101061.92
2019-02-12T05:53:42.730Z,101056.70
2019-02-12T05:54:49.529Z,101055.73
2019-02-12T05:55:56.289Z,101063.97
2019-02-12T05:57:01.918Z,101063.16
2019-02-12T05:58:07.557Z,101060.55
2019-02-12T05:59:13.227Z,101055.69
2019-02-12T06:00:21.650Z,101062.21
2019-02-12T06:01:27.299Z,101063.52
2019-02-12T06:02:32.943Z,101066.58
2019-02-12T06:03:38.575Z,101060.67
2019-02-12T06:04:44.186Z,101074.32
2019-02-12T06:05:49.810Z,101066.86
2019-02-12T06:06:55.995Z,101072.16
2019-02-12T06:08:02.985Z,101075.78
2019-02-12T06:09:20.047Z,101072.80
2019-02-12T06:11:03.969Z,101083.40
2019-02-12T06:12:22.378Z,101081.32
2019-02-12T06:13:40.827Z,101078.71
2019-02-12T06:15:18.940Z,101092.98
2019-02-12T06:16:55.721Z,101092.53
2019-02-12T06:18:13.395Z,101092.86
2019-02-12T06:19:20.075Z,101094.09
2019-02-12T06:20:30.972Z,101098.00
2019-02-12T06:23:24.192Z,101101.17
2019-02-12T06:24:49.860Z,101107.34
2019-02-12T06:26:14.206Z,101110.92
2019-02-12T06:27:18.997Z,101105.83
2019-02-12T06:28:32.051Z,101113.32
2019-02-12T06:29:55.017Z,101112.47
2019-02-12T06:31:05.626Z,101119.44
2019-02-12T06:32:44.287Z,101112.55
2019-02-12T06:33:51.028Z,101121.20
2019-02-12T06:35:21.721Z,101120.09
2019-02-12T06:36:55.096Z,101120.09
2019-02-12T06:38:05.229Z,101118.73
2019-02-12T06:39:11.420Z,101124.08
2019-02-12T06:40:32.429Z,101123.38
2019-02-12T06:42:09.907Z,101111.35
2019-02-12T06:43:21.178Z,101128.59
2019-02-12T06:44:38.859Z,101120.11
2019-02-12T06:45:54.290Z,101125.00
2019-02-12T06:47:22.050Z,101125.08
2019-02-12T06:49:53.379Z,101130.53
2019-02-12T06:51:01.073Z,101140.23
2019-02-12T06:52:08.683Z,101131.14
2019-02-12T06:53:15.967Z,101134.31
2019-02-12T06:54:22.553Z,101133.13
2019-02-12T06:55:28.789Z,101142.75
2019-02-12T06:56:34.913Z,101136.70
2019-02-12T06:57:40.577Z,101144.58
2019-02-12T06:58:46.236Z,101142.45
2019-02-12T06:59:51.889Z,101152.53
2019-02-12T07:00:57.549Z,101150.70
2019-02-12T07:02:57.953Z,101152.13
2019-02-12T07:04:03.601Z,101156.94
2019-02-12T07:05:10.450Z,101152.20
2019-02-12T07:06:26.171Z,101167.58
2019-02-12T07:08:03.769Z,101162.36
2019-02-12T07:09:24.209Z,101169.30
2019-02-12T07:10:30.689Z,101170.76
2019-02-12T07:11:58.667Z,101170.39
2019-02-12T07:13:21.569Z,101181.81
2019-02-12T07:14:59.622Z,101178.83
2019-02-12T07:16:10.769Z,101188.09
2019-02-12T07:17:33.913Z,101194.29
2019-02-12T07:18:56.739Z,101187.34
2019-02-12T07:20:39.959Z,101192.77
2019-02-12T07:22:03.133Z,101190.64
2019-02-12T07:23:50.621Z,101191.53
2019-02-12T07:25:01.843Z,101199.78
2019-02-12T07:26:24.797Z,101194.07
2019-02-12T07:27:43.943Z,101194.89
2019-02-12T07:29:15.535Z,101200.00
2019-02-12T07:30:31.319Z,101213.96
2019-02-12T07:32:11.269Z,101209.97
2019-02-12T07:33:27.460Z,101216.50
2019-02-12T07:34:43.072Z,101214.70
2019-02-12T07:36:05.517Z,101206.94
2019-02-12T07:37:30.840Z,101209.48
2019-02-12T07:38:56.800Z,101225.16
2019-02-12T07:40:13.916Z,101225.56
2019-02-12T07:41:56.639Z,101228.59
2019-02-12T07:43:45.582Z,101234.38
2019-02-12T07:45:38.804Z,101235.31
2019-02-12T07:47:16.169Z,101247.34
2019-02-12T07:48:58.633Z,101250.16
2019-02-12T07:50:15.523Z,101247.25
2019-02-12T07:51:41.741Z,101256.06
2019-02-12T07:53:05.438Z,101243.45
2019-02-12T07:54:39.143Z,101263.13
2019-02-12T07:56:20.420Z,101266.64
2019-02-12T07:57:58.229Z,101269.78
2019-02-12T07:59:40.333Z,101268.26
2019-02-12T08:01:16.278Z,101274.45
2019-02-12T08:02:45.806Z,101266.25
2019-02-12T08:04:12.812Z,101263.71
2019-02-12T08:05:31.843Z,101268.12
2019-02-12T08:07:03.043Z,101270.44
2019-02-12T08:08:23.021Z,101274.44
2019-02-12T08:09:40.152Z,101273.13
2019-02-12T08:11:15.389Z,101280.19
2019-02-12T08:12:54.603Z,101284.11
2019-02-12T08:14:29.461Z,101293.75
2019-02-12T08:15:55.618Z,101292.56
2019-02-12T08:17:36.329Z,101300.19
2019-02-12T08:19:07.577Z,101306.84
2019-02-12T08:20:38.515Z,101305.65
2019-02-12T08:22:08.058Z,101307.93
2019-02-12T08:23:41.472Z,101313.64
2019-02-12T08:24:53.100Z,101315.41
2019-02-12T08:26:04.066Z,101317.27
2019-02-12T08:27:26.544Z,101308.61
2019-02-12T08:29:05.700Z,101318.28
2019-02-12T08:30:24.633Z,101312.72
2019-02-12T08:31:49.589Z,101327.56
2019-02-12T08:33:08.638Z,101323.30
2019-02-12T08:34:42.638Z,101320.31
2019-02-12T08:35:57.575Z,101329.06
2019-02-12T08:37:19.645Z,101331.27
2019-02-12T08:38:35.822Z,101328.23
2019-02-12T08:39:55.059Z,101333.55
2019-02-12T08:41:54.939Z,101332.09
2019-02-12T08:43:34.238Z,101342.14
2019-02-12T08:45:06.348Z,101335.59
2019-02-12T08:46:21.343Z,101337.58
2019-02-12T08:47:52.644Z,101335.45
2019-02-12T08:49:28.722Z,101346.93
2019-02-12T08:50:57.034Z,101346.15
2019-02-12T08:52:34.648Z,101350.14
2019-02-12T08:54:00.376Z,101359.83
2019-02-12T08:55:17.168Z,101349.09
2019-02-12T08:56:31.622Z,101354.67
2019-02-12T08:57:58.669Z,101363.01
2019-02-12T08:59:11.943Z,101357.77
2019-02-12T09:00:30.745Z,101366.94
2019-02-12T09:01:59.199Z,101362.94
2019-02-12T09:03:39.925Z,101367.05
2019-02-12T09:05:01.961Z,101366.83
2019-02-12T09:06:18.129Z,101376.47
2019-02-12T09:07:35.399Z,101370.94
2019-02-12T09:09:08.864Z,101374.98
2019-02-12T09:10:48.025Z,101376.28
2019-02-12T09:12:11.251Z,101370.11
2019-02-12T09:13:44.369Z,101365.59
2019-02-12T09:15:24.329Z,101383.02
2019-02-12T09:16:49.742Z,101376.88
2019-02-12T09:18:10.062Z,101382.72
2019-02-12T09:19:26.968Z,101376.36
2019-02-12T09:20:52.748Z,101391.77
2019-02-12T09:22:28.629Z,101395.88
2019-02-12T09:24:12.919Z,101395.66
2019-02-12T09:25:27.038Z,101388.88
2019-02-12T09:26:55.953Z,101405.61
2019-02-12T09:28:21.028Z,101406.80
2019-02-12T09:29:31.362Z,101400.78
2019-02-12T09:31:04.209Z,101407.89
2019-02-12T09:32:42.760Z,101410.39
2019-02-12T09:34:19.977Z,101419.28
2019-02-12T09:35:44.482Z,101418.39
2019-02-12T09:37:28.112Z,101426.44
2019-02-12T09:38:45.555Z,101426.21
2019-02-12T09:40:18.798Z,101430.52
2019-02-12T09:41:31.918Z,101431.53
2019-02-12T09:42:50.365Z,101435.12
2019-02-12T09:44:25.000Z,101443.69
2019-02-12T09:45:56.317Z,101441.07
2019-02-12T09:47:15.135Z,101440.25
2019-02-12T09:48:49.832Z,101435.01
2019-02-12T09:50:18.426Z,101430.41
2019-02-12T09:53:36.495Z,101453.19
2019-02-12T09:55:11.368Z,101450.04
2019-02-12T09:56:44.911Z,101462.61
2019-02-12T09:58:04.941Z,101449.75
2019-02-12T09:59:30.230Z,101455.73
2019-02-12T10:00:49.803Z,101458.35
2019-02-12T10:02:20.042Z,101458.72
2019-02-12T10:03:56.059Z,101459.55
2019-02-12T10:05:35.863Z,101461.23
2019-02-12T10:07:02.709Z,101467.41
2019-02-12T10:08:15.672Z,101462.21
2019-02-12T10:09:53.248Z,101464.60
2019-02-12T10:11:23.029Z,101480.58
2019-02-12T10:12:45.643Z,101474.22
2019-02-12T10:14:14.238Z,101474.41
2019-02-12T10:16:12.004Z,101478.64
2019-02-12T10:17:57.064Z,101478.83
2019-02-12T10:19:31.585Z,101475.16
2019-02-12T10:21:04.190Z,101485.52
2019-02-12T10:22:37.074Z,101485.45
2019-02-12T10:23:53.810Z,101488.32
2019-02-12T10:25:10.999Z,101483.22
2019-02-12T10:26:24.757Z,101491.31
2019-02-12T10:28:11.967Z,101488.63
2019-02-12T10:29:28.123Z,101483.26
2019-02-12T10:31:01.219Z,101491.06
2019-02-12T10:32:08.729Z,101491.25
2019-02-12T10:33:12.463Z,101496.75
2019-02-12T10:34:18.115Z,101485.53
2019-02-12T10:35:23.820Z,101495.72
2019-02-12T10:36:29.478Z,101498.86
2019-02-12T10:37:35.141Z,101497.52
2019-02-12T10:38:41.019Z,101500.44
2019-02-12T10:39:48.065Z,101500.19
2019-02-12T10:40:54.008Z,101495.14
2019-02-12T10:41:59.799Z,101500.63
2019-02-12T10:43:05.840Z,101511.67
2019-02-12T10:44:11.615Z,101501.31
2019-02-12T10:45:17.625Z,101497.50
2019-02-12T10:46:23.567Z,101508.43
2019-02-12T10:47:29.204Z,101515.16
2019-02-12T10:48:34.849Z,101512.05
2019-02-12T10:49:40.479Z,101503.90
2019-02-12T10:50:46.109Z,101498.73
2019-02-12T10:51:51.737Z,101514.64
2019-02-12T10:52:57.745Z,101513.11
2019-02-12T10:54:03.353Z,101508.88
2019-02-12T10:55:09.577Z,101514.19
2019-02-12T10:56:16.458Z,101508.58
2019-02-12T10:57:22.849Z,101510.97
2019-02-12T11:00:53.514Z,101518.48
2019-02-12T11:02:16.580Z,101516.75
2019-02-12T11:03:24.687Z,101514.41
2019-02-12T11:04:30.286Z,101513.02
2019-02-12T11:05:36.250Z,101521.52
2019-02-12T11:06:42.334Z,101521.94
2019-02-12T11:07:48.034Z,101517.66
2019-02-12T11:08:54.723Z,101522.12
2019-02-12T11:10:00.714Z,101524.92
2019-02-12T11:11:06.773Z,101523.72
2019-02-12T11:12:13.155Z,101521.58
2019-02-12T11:13:19.130Z,101529.86
2019-02-12T11:14:25.004Z,101526.72
2019-02-12T11:15:31.367Z,101529.86
2019-02-12T11:16:36.995Z,101538.10
2019-02-12T11:17:43.283Z,101531.78
2019-02-12T11:18:49.473Z,101532.95
2019-02-12T11:19:55.223Z,101541.02
2019-02-12T11:21:11.638Z,101539.70
2019-02-12T11:22:16.050Z,101537.67
2019-02-12T11:23:23.052Z,101545.20
2019-02-12T11:24:35.488Z,101538.27
2019-02-12T11:25:36.612Z,101531.70
2019-02-12T11:26:42.253Z,101544.93
2019-02-12T11:27:49.026Z,101537.31
2019-02-12T11:28:55.093Z,101543.34
2019-02-12T11:30:00.760Z,101540.09
2019-02-12T11:31:06.761Z,101544.34
2019-02-12T11:32:12.425Z,101541.68
2019-02-12T11:33:18.423Z,101553.59
2019-02-12T11:34:24.263Z,101551.14
2019-02-12T11:35:29.934Z,101547.80
2019-02-12T11:36:35.923Z,101558.95
2019-02-12T11:37:42.325Z,101556.92
2019-02-12T11:38:49.011Z,101556.92
2019-02-12T11:39:54.663Z,101551.27
2019-02-12T11:41:00.503Z,101557.09
2019-02-12T11:42:06.850Z,101559.19
2019-02-12T11:43:13.291Z,101557.88
2019-02-12T11:44:18.994Z,101562.75
2019-02-12T11:45:25.214Z,101558.09
2019-02-12T11:46:31.580Z,101561.27
2019-02-12T11:47:37.280Z,101568.73
2019-02-12T11:48:43.424Z,101561.03
2019-02-12T11:49:49.314Z,101567.11
2019-02-12T11:50:55.022Z,101567.24
2019-02-12T11:52:00.714Z,101565.78
2019-02-12T11:53:06.533Z,101570.62
2019-02-12T11:54:12.532Z,101574.52
2019-02-12T11:55:19.355Z,101579.28
2019-02-12T11:56:25.220Z,101579.62
2019-02-12T11:57:31.065Z,101572.54
2019-02-12T11:58:36.761Z,101585.77
2019-02-12T11:59:42.423Z,101579.20
2019-02-12T12:00:49.681Z,101584.41
2019-02-12T12:01:56.093Z,101591.80
2019-02-12T12:03:02.271Z,101591.42
2019-02-12T12:04:07.883Z,101593.22
2019-02-12T12:05:14.294Z,101583.14
2019-02-12T12:06:19.959Z,101590.79
2019-02-12T12:07:25.690Z,101600.69
2019-02-12T12:08:31.703Z,101594.12
2019-02-12T12:09:37.366Z,101592.44
2019-02-12T12:10:43.803Z,101597.38
2019-02-12T12:11:49.929Z,101596.14
2019-02-12T12:12:56.613Z,101586.55
2019-02-12T12:14:03.490Z,101600.45
2019-02-12T12:15:12.889Z,101602.53
2019-02-12T12:16:18.922Z,101601.39
2019-02-12T12:17:24.594Z,101608.66
2019-02-12T12:18:30.661Z,101603.10
2019-02-12T12:19:36.594Z,101609.66
2019-02-12T12:20:42.563Z,101612.25
2019-02-12T12:21:48.225Z,101600.38
2019-02-12T12:22:54.548Z,101594.81
2019-02-12T12:24:01.053Z,101602.17
2019-02-12T12:25:10.676Z,101605.20
2019-02-12T12:26:16.447Z,101602.38
2019-02-12T12:27:22.765Z,101601.97
2019-02-12T12:28:29.233Z,101609.61
2019-02-12T12:29:35.292Z,101607.33
2019-02-12T12:30:41.000Z,101608.70
2019-02-12T12:31:48.070Z,101610.61
2019-02-12T12:32:54.263Z,101610.43
2019-02-12T12:33:59.963Z,101620.06
2019-02-12T12:35:09.552Z,101614.26
2019-02-12T12:36:15.233Z,101618.58
2019-02-12T12:37:21.281Z,101615.98
2019-02-12T12:38:26.990Z,101615.98
2019-02-12T12:39:32.663Z,101620.75
2019-02-12T12:40:38.461Z,101626.17
2019-02-12T12:41:44.590Z,101625.11
2019-02-12T12:42:50.643Z,101617.52
2019-02-12T12:43:56.513Z,101631.20
2019-02-12T12:45:02.834Z,101631.92
2019-02-12T12:46:09.215Z,101639.42
2019-02-12T12:47:15.851Z,101636.48
2019-02-12T12:48:22.110Z,101641.02
2019-02-12T12:49:27.983Z,101644.53
2019-02-12T12:50:34.442Z,101638.21
2019-02-12T12:51:40.570Z,101647.36
2019-02-12T12:52:46.465Z,101651.16
2019-02-12T12:53:52.980Z,101649.44
2019-02-12T12:55:00.115Z,101654.23
2019-02-12T12:56:06.896Z,101656.38
2019-02-12T12:57:13.247Z,101658.89
2019-02-12T12:58:19.210Z,101656.30
2019-02-12T12:59:25.278Z,101659.90
2019-02-12T13:00:31.443Z,101657.45
2019-02-12T13:01:37.447Z,101668.84
2019-02-12T13:02:43.402Z,101659.70
2019-02-12T13:03:49.133Z,101659.22
2019-02-12T13:04:54.824Z,101652.94
2019-02-12T13:06:00.530Z,101660.47
2019-02-12T13:07:06.195Z,101647.85
2019-02-12T13:08:11.920Z,101661.61
2019-02-12T13:09:17.550Z,101662.61
2019-02-12T13:10:23.414Z,101676.77
2019-02-12T13:11:29.624Z,101681.42
2019-02-12T13:12:35.371Z,101675.05
2019-02-12T13:13:41.574Z,101673.48
2019-02-12T13:14:47.770Z,101678.56
2019-02-12T13:15:53.569Z,101679.27
2019-02-12T13:17:00.970Z,101683.33
2019-02-12T13:18:07.735Z,101681.83
2019-02-12T13:19:13.623Z,101692.55
2019-02-12T13:20:21.883Z,101693.64
2019-02-12T13:21:28.142Z,101693.08
2019-02-12T13:22:34.082Z,101692.89
2019-02-12T13:23:41.833Z,101695.80
2019-02-12T13:24:48.881Z,101692.51
2019-02-12T13:25:55.284Z,101692.80
2019-02-12T13:27:01.720Z,101693.02
2019-02-12T13:28:07.917Z,101698.56
2019-02-12T13:29:13.744Z,101698.03
2019-02-12T13:30:20.430Z,101703.69
2019-02-12T13:31:26.163Z,101702.38
2019-02-12T13:32:31.833Z,101703.73
2019-02-12T13:33:37.544Z,101702.08
2019-02-12T13:34:43.665Z,101700.97
2019-02-12T13:35:49.532Z,101705.17
2019-02-12T13:36:55.343Z,101707.83
2019-02-12T13:38:01.323Z,101707.53
2019-02-12T13:39:07.388Z,101709.04
2019-02-12T13:40:14.070Z,101712.27
2019-02-12T13:41:20.083Z,101708.93
2019-02-12T13:42:25.973Z,101703.88